Pipestone, MN

1:15 PM CDT on August 28, 2016 (GMT -0500)
Pipestone Municipal

Weather History for KPQN - March, 2014

Change the Weather History Date:

Saturday, March 15, 2014

  Actual Average Record
Temperature  
Mean Temperature 27 °F -  
Max Temperature 30 °F 35 °F 73 °F (2015)
Min Temperature 24 °F 20 °F -5 °F (1997)
Degree Days  
Heating Degree Days 38    
Moisture  
Dew Point 22 °F    
Average Humidity 78    
Maximum Humidity 93    
Minimum Humidity 64    
Precipitation  
Precipitation 0.00 in - - ()
Sea Level Pressure  
Sea Level Pressure 30.08 in    
Wind  
Wind Speed 10 mph (ENE)    
Max Wind Speed 15 mph    
Max Gust Speed 22 mph    
Visibility 10 miles    
Events Snow    
Averages and records for this station are not official NWS values.
T = Trace of Precipitation, MM = Missing Value Source: NWS Daily Summary

Daily Weather History Graph

Daily Weather History Graph

Search for Another Location

Airport or City:

Trip Planner

Search our weather history database for the weather conditions in past years. The results will help you decide how hot, cold, wet, or windy it might be!

Date:

Astronomy

Mar. 15, 2014 Rise Set
Actual Time 7:37 AM CDT 7:31 PM CDT
Civil Twilight 7:08 AM CDT 8:00 PM CDT
Nautical Twilight 6:35 AM CDT 8:33 PM CDT
Astronomical Twilight 6:01 AM CDT 9:08 PM CDT
Moon 6:51 PM CDT (3/15) 6:51 AM CDT (3/15)
Length of Visible Light 12h 51m
Length of Day
11h 54m
Waxing Gibbous, 99% of the Moon is Illuminated
Mar 15
Waxing Gibbous
Mar 16
Full
Mar 23
Last Quarter
Mar 30
New
Apr 7
First Quarter

Hourly Weather History & Observations

Time (CDT) Temp. Windchill Dew Point Humidity Pressure Visibility Wind Dir Wind Speed Gust Speed Precip Events Conditions
12:13 AM 30.2 °F 23.4 °F 28.4 °F 93% 29.91 in 10.0 mi East 6.9 mph - N/A   Clear
12:33 AM 30.2 °F 24.3 °F 28.4 °F 93% 29.91 in 10.0 mi East 5.8 mph - N/A   Clear
12:53 AM 30.2 °F 23.4 °F 28.4 °F 93% 29.91 in 10.0 mi East 6.9 mph - N/A   Scattered Clouds
1:13 AM 30.2 °F 22.6 °F 28.4 °F 93% 29.94 in 10.0 mi East 8.1 mph - N/A   Mostly Cloudy
1:33 AM 30.2 °F 22.6 °F 26.6 °F 86% 29.93 in 10.0 mi ESE 8.1 mph - N/A   Overcast
1:53 AM 30.2 °F 24.3 °F 26.6 °F 86% 29.95 in 10.0 mi East 5.8 mph - N/A   Scattered Clouds
2:13 AM 30.2 °F 24.3 °F 26.6 °F 86% 29.94 in 10.0 mi East 5.8 mph - N/A   Clear
2:33 AM 30.2 °F 23.4 °F 26.6 °F 86% 29.94 in 10.0 mi ESE 6.9 mph - N/A   Clear
2:53 AM 30.2 °F 21.9 °F 24.8 °F 80% 29.95 in 10.0 mi East 9.2 mph - N/A   Scattered Clouds
3:13 AM 28.4 °F 20.4 °F 24.8 °F 86% 29.94 in 10.0 mi East 8.1 mph - N/A   Mostly Cloudy
3:33 AM 28.4 °F 21.2 °F 24.8 °F 86% 29.93 in 10.0 mi East 6.9 mph - N/A   Mostly Cloudy
3:53 AM 28.4 °F 21.2 °F 24.8 °F 86% 29.92 in 10.0 mi East 6.9 mph - N/A   Mostly Cloudy
4:13 AM 28.4 °F 20.4 °F 23.0 °F 80% 29.92 in 10.0 mi East 8.1 mph - N/A   Overcast
4:33 AM 28.4 °F 22.2 °F 23.0 °F 80% 29.93 in 10.0 mi East 5.8 mph - N/A   Overcast
4:53 AM 28.4 °F 19.7 °F 24.8 °F 86% 29.91 in 10.0 mi East 9.2 mph - N/A   Overcast
5:13 AM 28.4 °F 19.1 °F 23.0 °F 80% 29.90 in 10.0 mi ENE 10.4 mph 18.4 mph N/A   Mostly Cloudy
5:34 AM 28.4 °F 18.5 °F 21.2 °F 74% 29.91 in 10.0 mi East 11.5 mph - N/A   Scattered Clouds
5:53 AM 28.4 °F 19.1 °F 21.2 °F 74% 29.92 in 10.0 mi East 10.4 mph - N/A   Mostly Cloudy
6:13 AM 28.4 °F 19.7 °F 21.2 °F 74% 29.92 in 10.0 mi East 9.2 mph - N/A   Overcast
6:33 AM 28.4 °F 18.5 °F 21.2 °F 74% 29.92 in 10.0 mi East 11.5 mph - N/A   Mostly Cloudy
6:53 AM 28.4 °F 17.5 °F 21.2 °F 74% 29.92 in 10.0 mi East 13.8 mph 17.3 mph N/A   Mostly Cloudy
7:13 AM 28.4 °F 18.5 °F 23.0 °F 80% 29.94 in 10.0 mi ENE 11.5 mph 17.3 mph N/A   Overcast
7:33 AM 28.4 °F 18.5 °F 23.0 °F 80% 29.95 in 10.0 mi East 11.5 mph 17.3 mph N/A   Overcast
7:53 AM 26.6 °F 16.2 °F 23.0 °F 86% 29.96 in 10.0 mi East 11.5 mph 17.3 mph N/A   Mostly Cloudy
8:13 AM 28.4 °F 19.7 °F 23.0 °F 80% 29.97 in 10.0 mi East 9.2 mph 18.4 mph N/A Snow Light Snow
8:33 AM 28.4 °F 18.5 °F 24.8 °F 86% 29.97 in 10.0 mi East 11.5 mph 18.4 mph N/A   Clear
8:53 AM 28.4 °F 21.2 °F 24.8 °F 86% 29.98 in 10.0 mi East 6.9 mph 17.3 mph N/A   Scattered Clouds
9:13 AM 28.4 °F 19.7 °F 24.8 °F 86% 29.98 in 10.0 mi East 9.2 mph 17.3 mph N/A   Mostly Cloudy
9:33 AM 28.4 °F 19.1 °F 24.8 °F 86% 29.99 in 10.0 mi East 10.4 mph 19.6 mph N/A   Mostly Cloudy
9:53 AM 28.4 °F 19.7 °F 23.0 °F 80% 30.00 in 10.0 mi East 9.2 mph 20.7 mph N/A   Scattered Clouds
10:13 AM 28.4 °F 18.5 °F 23.0 °F 80% 30.01 in 10.0 mi East 11.5 mph 19.6 mph N/A   Clear
10:33 AM 28.4 °F 19.1 °F 23.0 °F 80% 30.03 in 10.0 mi East 10.4 mph 19.6 mph N/A   Clear
10:53 AM 28.4 °F 17.0 °F 23.0 °F 80% 30.04 in 10.0 mi East 15.0 mph 20.7 mph N/A   Clear
11:13 AM 28.4 °F 18.0 °F 21.2 °F 74% 30.05 in 10.0 mi East 12.7 mph - N/A   Clear
11:33 AM 28.4 °F 17.0 °F 23.0 °F 80% 30.06 in 7.0 mi East 15.0 mph - N/A Snow Light Snow
11:53 AM 28.4 °F 17.0 °F 24.8 °F 86% 30.06 in 2.0 mi East 15.0 mph 20.7 mph N/A Snow Light Snow
12:13 PM 28.4 °F 20.4 °F 24.8 °F 86% 30.07 in 2.0 mi East 8.1 mph 17.3 mph N/A Snow Light Snow
12:33 PM 28.4 °F 19.7 °F 24.8 °F 86% 30.08 in 2.5 mi East 9.2 mph 16.1 mph N/A Snow Light Snow
12:53 PM 28.4 °F 19.7 °F 24.8 °F 86% 30.09 in 4.0 mi East 9.2 mph 19.6 mph N/A Snow Light Snow
1:13 PM 28.4 °F 18.5 °F 23.0 °F 80% 30.10 in 7.0 mi ENE 11.5 mph 19.6 mph N/A Snow Light Snow
1:33 PM 28.4 °F 17.5 °F 23.0 °F 80% 30.11 in 10.0 mi ENE 13.8 mph 20.7 mph N/A   Clear
1:53 PM 28.4 °F 18.5 °F 23.0 °F 80% 30.11 in 7.0 mi ENE 11.5 mph 20.7 mph N/A   Mostly Cloudy
2:13 PM 28.4 °F 17.5 °F 23.0 °F 80% 30.12 in 10.0 mi ENE 13.8 mph 17.3 mph N/A   Scattered Clouds
2:33 PM 28.4 °F 18.0 °F 21.2 °F 74% 30.12 in 10.0 mi ENE 12.7 mph 18.4 mph N/A   Scattered Clouds
2:53 PM 28.4 °F 18.5 °F 21.2 °F 74% 30.13 in 10.0 mi ENE 11.5 mph 19.6 mph N/A   Scattered Clouds
3:13 PM 28.4 °F 18.0 °F 21.2 °F 74% 30.14 in 10.0 mi ENE 12.7 mph 20.7 mph N/A   Scattered Clouds
3:33 PM 28.4 °F 18.0 °F 19.4 °F 69% 30.15 in 10.0 mi ENE 12.7 mph 18.4 mph N/A   Scattered Clouds
3:53 PM 28.4 °F 17.5 °F 21.2 °F 74% 30.16 in 10.0 mi ENE 13.8 mph 21.9 mph N/A   Scattered Clouds
4:13 PM 28.4 °F 18.0 °F 21.2 °F 74% 30.16 in 10.0 mi ENE 12.7 mph 20.7 mph N/A   Clear
4:33 PM 28.4 °F 17.5 °F 19.4 °F 69% 30.17 in 10.0 mi ENE 13.8 mph 20.7 mph N/A   Clear
4:53 PM 28.4 °F 18.0 °F 19.4 °F 69% 30.18 in 10.0 mi ENE 12.7 mph 19.6 mph N/A   Scattered Clouds
5:14 PM 28.4 °F 17.5 °F 19.4 °F 69% 30.18 in 10.0 mi ENE 13.8 mph 19.6 mph N/A   Scattered Clouds
5:33 PM 28.4 °F 18.5 °F 19.4 °F 69% 30.19 in 10.0 mi ENE 11.5 mph - N/A   Clear
5:53 PM 28.4 °F 18.0 °F 19.4 °F 69% 30.20 in 10.0 mi ENE 12.7 mph - N/A   Mostly Cloudy
6:14 PM 28.4 °F 17.5 °F 19.4 °F 69% 30.21 in 10.0 mi NE 13.8 mph 21.9 mph N/A   Overcast
6:33 PM 28.4 °F 17.5 °F 17.6 °F 64% 30.22 in 10.0 mi ENE 13.8 mph 19.6 mph N/A   Overcast
6:53 PM 28.4 °F 18.0 °F 19.4 °F 69% 30.24 in 10.0 mi NE 12.7 mph 21.9 mph N/A   Overcast
7:13 PM 28.4 °F 17.0 °F 19.4 °F 69% 30.25 in 10.0 mi NE 15.0 mph 20.7 mph N/A   Overcast
7:33 PM 28.4 °F 18.0 °F 19.4 °F 69% 30.25 in 10.0 mi NE 12.7 mph - N/A   Overcast
7:53 PM 26.6 °F 16.8 °F 19.4 °F 74% 30.27 in 10.0 mi NE 10.4 mph - N/A   Overcast
8:13 PM 26.6 °F 15.7 °F 19.4 °F 74% 30.28 in 10.0 mi NE 12.7 mph - N/A   Mostly Cloudy
8:33 PM 26.6 °F 16.2 °F 19.4 °F 74% 30.28 in 10.0 mi NE 11.5 mph - N/A   Scattered Clouds
8:53 PM 26.6 °F 16.8 °F 19.4 °F 74% 30.29 in 10.0 mi NE 10.4 mph - N/A   Mostly Cloudy
9:13 PM 26.6 °F 15.7 °F 19.4 °F 74% 30.29 in 10.0 mi NE 12.7 mph 16.1 mph N/A   Overcast
9:33 PM 26.6 °F 14.7 °F 19.4 °F 74% 30.30 in 10.0 mi NE 15.0 mph - N/A   Mostly Cloudy
9:53 PM 26.6 °F 14.7 °F 19.4 °F 74% 30.30 in 10.0 mi NE 15.0 mph - N/A   Scattered Clouds
10:13 PM 26.6 °F 15.7 °F 17.6 °F 69% 30.31 in 10.0 mi NE 12.7 mph 19.6 mph N/A   Clear
10:33 PM 26.6 °F 15.2 °F 17.6 °F 69% 30.31 in 10.0 mi NE 13.8 mph 18.4 mph N/A   Clear
10:53 PM 24.8 °F 14.0 °F 15.8 °F 69% 30.33 in 10.0 mi NE 11.5 mph 16.1 mph N/A   Clear
11:13 PM 24.8 °F 14.6 °F 15.8 °F 69% 30.33 in 10.0 mi NE 10.4 mph - N/A   Clear
11:33 PM 24.8 °F 15.3 °F 17.6 °F 74% 30.34 in 10.0 mi NE 9.2 mph - N/A   Clear
11:53 PM 24.8 °F 14.6 °F 17.6 °F 74% 30.35 in 10.0 mi NE 10.4 mph 17.3 mph N/A   Clear